Time;durP1;ratioP1;P1;durP2;ratioP2;P2;SDS_P1;SDS_P2;PMS_P1;PMS_P2;Temp;Humidity;BMP_temperature;BMP_pressure;BME280_temperature;BME280_humidity;BME280_pressure;Samples;Min_cycle;Max_cycle;Signal;HPM_P1;HPM_P2
2022/04/27 00:01:12;;;;;;;14.97;13.37;;;;;;;;;;5011913;28;20214;-74
2022/04/27 00:03:42;;;;;;;14.83;13.33;;;;;;;;;;4991917;28;20207;-74
2022/04/27 00:06:09;;;;;;;13.20;11.80;;;;;;;;;;4999735;28;20567;-74
2022/04/27 00:08:35;;;;;;;14.60;13.10;;;;;;;;;;5009761;28;20203;-74
2022/04/27 00:11:02;;;;;;;17.37;14.17;;;;;;;;;;5009883;28;20270;-74
2022/04/27 00:13:28;;;;;;;15.33;13.73;;;;;;;;;;5011532;28;20194;-74
2022/04/27 00:15:54;;;;;;;14.17;12.67;;;;;;;;;;5009459;28;20195;-74
2022/04/27 00:18:20;;;;;;;14.40;12.40;;;;;;;;;;5011248;28;20225;-74
2022/04/27 00:20:46;;;;;;;12.90;11.60;;;;;;;;;;5009988;28;20203;-74
2022/04/27 00:23:13;;;;;;;13.77;11.60;;;;;;;;;;5011479;28;20179;-74
2022/04/27 00:25:39;;;;;;;12.37;11.17;;;;;;;;;;5011221;28;20262;-74
2022/04/27 00:28:06;;;;;;;11.77;10.67;;;;;;;;;;5011200;28;20548;-74
2022/04/27 00:30:32;;;;;;;11.60;10.40;;;;;;;;;;5013973;28;20179;-74
2022/04/27 00:32:58;;;;;;;11.60;10.40;;;;;;;;;;5015301;28;20228;-74
2022/04/27 00:35:24;;;;;;;10.53;9.53;;;;;;;;;;5014935;28;20218;-75
2022/04/27 00:37:50;;;;;;;11.07;9.90;;;;;;;;;;5015244;28;20199;-75
2022/04/27 00:40:16;;;;;;;12.23;10.93;;;;;;;;;;5015010;28;20186;-75
2022/04/27 00:42:43;;;;;;;11.37;10.17;;;;;;;;;;5015150;28;20187;-74
2022/04/27 00:45:09;;;;;;;10.80;9.63;;;;;;;;;;5014747;28;20202;-75
2022/04/27 00:47:35;;;;;;;11.40;10.20;;;;;;;;;;5015121;28;20195;-75
2022/04/27 00:50:02;;;;;;;11.53;10.20;;;;;;;;;;5014846;28;20227;-75
2022/04/27 00:52:30;;;;;;;11.03;9.03;;;;;;;;;;5013089;28;20666;-75
2022/04/27 00:54:57;;;;;;;11.10;9.77;;;;;;;;;;5015063;28;20187;-75
2022/04/27 00:57:24;;;;;;;9.97;9.03;;;;;;;;;;5013511;28;20210;-75
2022/04/27 00:59:50;;;;;;;10.53;9.43;;;;;;;;;;5014607;28;20653;-75
2022/04/27 01:02:16;;;;;;;10.60;9.50;;;;;;;;;;5014757;28;20186;-75
2022/04/27 01:04:43;;;;;;;11.10;9.97;;;;;;;;;;5014408;28;20211;-75
2022/04/27 01:07:11;;;;;;;10.90;9.80;;;;;;;;;;5013478;28;20183;-75
2022/04/27 01:09:37;;;;;;;11.13;9.83;;;;;;;;;;5014405;28;20186;-75
2022/04/27 01:12:04;;;;;;;10.43;9.43;;;;;;;;;;5013543;28;20207;-75
2022/04/27 01:14:45;;;;;;;9.27;8.40;;;;;;;;;;5013770;28;20199;-75
2022/04/27 01:17:12;;;;;;;10.17;9.13;;;;;;;;;;5015111;28;20317;-75
2022/04/27 01:19:38;;;;;;;9.43;8.50;;;;;;;;;;5012697;28;20585;-75
2022/04/27 01:22:04;;;;;;;10.77;9.67;;;;;;;;;;5012868;28;20227;-76
2022/04/27 01:24:35;;;;;;;10.40;9.40;;;;;;;;;;5009595;28;20221;-75
2022/04/27 01:27:01;;;;;;;10.40;9.20;;;;;;;;;;5004203;28;20261;-75
2022/04/27 01:29:27;;;;;;;12.67;11.37;;;;;;;;;;5009994;28;20186;-75
2022/04/27 01:31:54;;;;;;;12.27;10.97;;;;;;;;;;5006455;28;20241;-75
2022/04/27 01:34:21;;;;;;;11.17;10.00;;;;;;;;;;5013153;28;20249;-75
2022/04/27 01:36:47;;;;;;;11.33;10.23;;;;;;;;;;4989297;28;20601;-75
2022/04/27 01:39:14;;;;;;;12.20;11.00;;;;;;;;;;5013429;28;20242;-76
2022/04/27 01:41:40;;;;;;;12.93;11.63;;;;;;;;;;5011379;28;20180;-75
2022/04/27 01:44:06;;;;;;;12.60;11.30;;;;;;;;;;5014191;28;20258;-75
2022/04/27 01:46:32;;;;;;;14.30;12.80;;;;;;;;;;5013035;28;20175;-75
2022/04/27 01:48:59;;;;;;;12.40;11.20;;;;;;;;;;5013127;28;20195;-75
2022/04/27 01:54:15;;;;;;;13.70;12.30;;;;;;;;;;5011826;28;20210;-75
2022/04/27 01:56:43;;;;;;;12.43;11.20;;;;;;;;;;5012799;28;20183;-75
2022/04/27 01:59:09;;;;;;;13.23;11.93;;;;;;;;;;5011749;28;20216;-75
2022/04/27 02:01:35;;;;;;;12.63;11.40;;;;;;;;;;5013049;28;20183;-75
2022/04/27 02:04:01;;;;;;;13.53;12.07;;;;;;;;;;5012375;28;20207;-75
2022/04/27 02:06:29;;;;;;;12.67;11.40;;;;;;;;;;5013833;28;20171;-74
2022/04/27 02:08:55;;;;;;;13.13;11.83;;;;;;;;;;5011739;28;20233;-75
2022/04/27 02:11:25;;;;;;;11.27;10.17;;;;;;;;;;5012142;28;20213;-75
2022/04/27 02:14:00;;;;;;;12.30;11.00;;;;;;;;;;5011881;28;20196;-75
2022/04/27 02:16:29;;;;;;;12.00;10.70;;;;;;;;;;5011515;28;20191;-75
2022/04/27 02:18:56;;;;;;;12.93;10.40;;;;;;;;;;5006909;28;20207;-74
2022/04/27 02:21:23;;;;;;;11.37;10.30;;;;;;;;;;5011988;28;20187;-75
2022/04/27 02:23:50;;;;;;;12.10;10.83;;;;;;;;;;4996082;28;20573;-75
2022/04/27 02:26:16;;;;;;;13.47;12.10;;;;;;;;;;5013685;28;20180;-75
2022/04/27 02:28:42;;;;;;;13.43;12.03;;;;;;;;;;5012621;28;20671;-75
2022/04/27 02:31:09;;;;;;;13.23;11.93;;;;;;;;;;5011646;28;20202;-75
2022/04/27 02:33:35;;;;;;;13.63;12.07;;;;;;;;;;5011771;28;20206;-75
2022/04/27 02:36:01;;;;;;;14.87;13.30;;;;;;;;;;5011312;28;20191;-75
2022/04/27 02:38:29;;;;;;;13.60;12.17;;;;;;;;;;5010654;28;20265;-75
2022/04/27 02:40:56;;;;;;;14.60;12.47;;;;;;;;;;5011401;28;20186;-75
2022/04/27 02:43:23;;;;;;;14.03;12.60;;;;;;;;;;5011161;28;20559;-75
2022/04/27 02:45:49;;;;;;;13.77;12.17;;;;;;;;;;5009925;28;20295;-75
2022/04/27 02:48:16;;;;;;;15.77;14.00;;;;;;;;;;5011011;28;20614;-75
2022/04/27 02:53:27;;;;;;;13.80;12.40;;;;;;;;;;5010734;28;20186;-75
2022/04/27 02:55:57;;;;;;;13.97;12.13;;;;;;;;;;5011647;28;20266;-75
2022/04/27 02:58:24;;;;;;;15.60;13.07;;;;;;;;;;5011137;28;20206;-75
2022/04/27 03:00:50;;;;;;;15.47;13.70;;;;;;;;;;5010654;28;20229;-75
2022/04/27 03:03:17;;;;;;;17.00;14.43;;;;;;;;;;5011337;28;20191;-75
2022/04/27 03:05:44;;;;;;;15.07;12.87;;;;;;;;;;5011202;28;20190;-75
2022/04/27 03:08:11;;;;;;;17.58;15.88;;;;;;;;;;4993997;28;20938;-75
2022/04/27 03:10:50;;;;;;;14.43;12.93;;;;;;;;;;5011134;28;20273;-75
2022/04/27 03:13:19;;;;;;;15.67;14.07;;;;;;;;;;5011195;28;20171;-75
2022/04/27 03:15:47;;;;;;;12.97;11.63;;;;;;;;;;5010630;28;20209;-75
2022/04/27 03:18:17;;;;;;;14.53;12.40;;;;;;;;;;5011900;28;20199;-75
2022/04/27 03:20:43;;;;;;;14.47;12.93;;;;;;;;;;5012297;28;20273;-75
2022/04/27 03:23:10;;;;;;;13.10;11.80;;;;;;;;;;5011115;28;20171;-75
2022/04/27 03:25:36;;;;;;;15.60;13.50;;;;;;;;;;5009874;28;20183;-75
2022/04/27 03:28:05;;;;;;;14.13;12.57;;;;;;;;;;5010406;28;20207;-75
2022/04/27 03:30:32;;;;;;;14.10;12.60;;;;;;;;;;5010110;28;20183;-75
2022/04/27 03:33:01;;;;;;;12.40;10.93;;;;;;;;;;5010773;28;20175;-75
2022/04/27 03:35:28;;;;;;;16.10;14.30;;;;;;;;;;5010443;28;20175;-75
2022/04/27 03:37:55;;;;;;;16.37;14.00;;;;;;;;;;4994052;28;20228;-75
2022/04/27 03:40:22;;;;;;;15.80;13.47;;;;;;;;;;5010660;28;20230;-75
2022/04/27 03:42:50;;;;;;;15.77;13.13;;;;;;;;;;5010667;28;20180;-75
2022/04/27 03:45:19;;;;;;;13.80;11.63;;;;;;;;;;5010741;28;20288;-75
2022/04/27 03:47:46;;;;;;;14.73;11.57;;;;;;;;;;5010013;28;20199;-75
2022/04/27 03:50:13;;;;;;;14.43;11.87;;;;;;;;;;5010601;28;20742;-75
2022/04/27 03:52:46;;;;;;;12.47;10.87;;;;;;;;;;5007415;28;20660;-75
2022/04/27 03:55:12;;;;;;;12.63;10.73;;;;;;;;;;5010391;28;20234;-75
2022/04/27 03:57:41;;;;;;;13.17;11.77;;;;;;;;;;4990950;28;20200;-75
2022/04/27 04:00:08;;;;;;;17.23;12.90;;;;;;;;;;5006893;28;20528;-75
2022/04/27 04:02:39;;;;;;;12.80;11.33;;;;;;;;;;5011398;28;20199;-75
2022/04/27 04:05:08;;;;;;;14.73;12.23;;;;;;;;;;5010080;28;20302;-75
2022/04/27 04:07:35;;;;;;;12.33;10.90;;;;;;;;;;5010235;28;20722;-75
2022/04/27 04:10:02;;;;;;;13.50;12.10;;;;;;;;;;5009481;28;20650;-75
2022/04/27 04:12:29;;;;;;;11.63;10.40;;;;;;;;;;4993753;28;20244;-74
2022/04/27 04:15:18;;;;;;;14.73;12.00;;;;;;;;;;4994272;28;20713;-75
2022/04/27 04:18:05;;;;;;;13.87;11.67;;;;;;;;;;4984212;28;20231;-75
2022/04/27 04:20:48;;;;;;;12.50;10.27;;;;;;;;;;5011561;28;20191;-74
2022/04/27 04:23:26;;;;;;;13.37;11.93;;;;;;;;;;5009970;28;20194;-74
2022/04/27 04:28:56;;;;;;;17.27;15.43;;;;;;;;;;5009436;28;20614;-74
2022/04/27 04:31:23;;;;;;;17.70;15.40;;;;;;;;;;5003417;28;20695;-74
2022/04/27 04:34:07;;;;;;;17.73;14.07;;;;;;;;;;5010063;28;20191;-77
2022/04/27 04:36:34;;;;;;;18.33;14.97;;;;;;;;;;5016091;28;20931;-78
2022/04/27 04:39:00;;;;;;;18.73;15.17;;;;;;;;;;4995742;28;20249;-79
2022/04/27 04:41:29;;;;;;;19.47;15.73;;;;;;;;;;5011267;28;20182;-74
2022/04/27 04:43:58;;;;;;;20.13;16.30;;;;;;;;;;5011051;28;20863;-77
2022/04/27 04:46:27;;;;;;;21.40;17.07;;;;;;;;;;4988770;28;20184;-75
2022/04/27 04:49:12;;;;;;;23.73;18.73;;;;;;;;;;5010973;28;20207;-75
2022/04/27 04:51:55;;;;;;;29.67;20.93;;;;;;;;;;5009504;28;20211;-76
2022/04/27 04:54:44;;;;;;;29.33;20.87;;;;;;;;;;5005453;28;20195;-75
2022/04/27 04:57:33;;;;;;;30.27;22.60;;;;;;;;;;5004928;28;20286;-75
2022/04/27 05:00:29;;;;;;;32.47;23.47;;;;;;;;;;5001369;28;20679;-75
2022/04/27 05:03:06;;;;;;;26.13;20.60;;;;;;;;;;5010011;28;20667;-75
2022/04/27 05:05:51;;;;;;;25.90;20.87;;;;;;;;;;5010921;28;20600;-75
2022/04/27 05:08:38;;;;;;;27.07;20.87;;;;;;;;;;5009648;28;20242;-76
2022/04/27 05:11:13;;;;;;;22.83;18.77;;;;;;;;;;5009221;28;20201;-75
2022/04/27 05:13:54;;;;;;;20.97;17.67;;;;;;;;;;5009797;28;20322;-75
2022/04/27 05:16:40;;;;;;;19.47;15.97;;;;;;;;;;5004590;28;20191;-75
2022/04/27 05:19:24;;;;;;;20.33;16.50;;;;;;;;;;5012587;28;20206;-75
2022/04/27 05:22:13;;;;;;;20.43;17.13;;;;;;;;;;4995653;28;20223;-75
2022/04/27 05:25:01;;;;;;;20.00;16.77;;;;;;;;;;4998816;28;20273;-75
2022/04/27 05:27:48;;;;;;;24.27;18.37;;;;;;;;;;5009645;28;20713;-84
2022/04/27 05:33:23;;;;;;;29.33;22.80;;;;;;;;;;4995238;28;20229;-77
2022/04/27 05:36:11;;;;;;;28.13;20.97;;;;;;;;;;5012853;28;20179;-77
2022/04/27 05:39:00;;;;;;;25.93;21.37;;;;;;;;;;5012778;28;20579;-77
2022/04/27 05:41:44;;;;;;;28.47;22.13;;;;;;;;;;5009812;28;20403;-77
2022/04/27 05:44:29;;;;;;;27.97;21.93;;;;;;;;;;5006602;28;20214;-77
2022/04/27 05:47:15;;;;;;;28.63;22.80;;;;;;;;;;5006385;28;20187;-77
2022/04/27 05:50:11;;;;;;;27.53;21.73;;;;;;;;;;5012408;28;20335;-78
2022/04/27 05:53:06;;;;;;;33.77;23.53;;;;;;;;;;5004661;28;20191;-77
2022/04/27 05:55:54;;;;;;;32.30;24.20;;;;;;;;;;5012241;28;20194;-77
2022/04/27 05:58:39;;;;;;;28.87;22.00;;;;;;;;;;5013190;28;20199;-77
2022/04/27 06:01:08;;;;;;;34.10;23.57;;;;;;;;;;5013988;28;20168;-77
2022/04/27 06:03:45;;;;;;;32.60;24.10;;;;;;;;;;5012626;28;20210;-77
2022/04/27 06:06:11;;;;;;;27.87;22.20;;;;;;;;;;5013594;28;20180;-78
2022/04/27 06:08:37;;;;;;;28.80;22.53;;;;;;;;;;5011958;28;20199;-77
2022/04/27 06:11:08;;;;;;;30.53;22.33;;;;;;;;;;5012407;28;20191;-77
2022/04/27 06:13:54;;;;;;;28.00;21.10;;;;;;;;;;5013540;28;20710;-77
2022/04/27 06:16:34;;;;;;;25.73;21.03;;;;;;;;;;4997022;28;20266;-78
2022/04/27 06:19:13;;;;;;;26.70;20.93;;;;;;;;;;4997164;28;20202;-77
2022/04/27 06:21:39;;;;;;;29.40;21.83;;;;;;;;;;5012118;28;20631;-77
2022/04/27 06:24:06;;;;;;;25.83;20.63;;;;;;;;;;5011998;28;20258;-77
2022/04/27 06:27:00;;;;;;;27.03;20.53;;;;;;;;;;4933489;28;20194;-77
2022/04/27 06:29:26;;;;;;;26.33;21.27;;;;;;;;;;4991361;28;20210;-77
2022/04/27 06:31:53;;;;;;;25.97;20.13;;;;;;;;;;5011951;28;20212;-77
2022/04/27 06:34:19;;;;;;;27.00;20.27;;;;;;;;;;5013199;28;20237;-77
2022/04/27 06:36:46;;;;;;;24.67;18.90;;;;;;;;;;4995762;28;20187;-77
2022/04/27 06:39:26;;;;;;;24.90;19.00;;;;;;;;;;4993731;28;20691;-77
2022/04/27 06:41:55;;;;;;;26.77;20.67;;;;;;;;;;5011860;28;20187;-77
2022/04/27 06:44:27;;;;;;;25.87;20.20;;;;;;;;;;5011798;28;20211;-77
2022/04/27 06:47:19;;;;;;;24.50;19.73;;;;;;;;;;5011500;28;20656;-77
2022/04/27 06:50:04;;;;;;;26.17;20.13;;;;;;;;;;5012252;28;20262;-77
2022/04/27 06:52:49;;;;;;;28.57;21.80;;;;;;;;;;4992937;28;20204;-77
2022/04/27 06:55:50;;;;;;;25.93;20.20;;;;;;;;;;4990631;28;20270;-77
2022/04/27 06:58:30;;;;;;;25.80;20.83;;;;;;;;;;4975099;28;20215;-77
2022/04/27 07:01:21;;;;;;;25.13;20.50;;;;;;;;;;5009254;28;20186;-77
2022/04/27 07:03:47;;;;;;;24.77;20.20;;;;;;;;;;5012370;28;20206;-77
2022/04/27 07:06:13;;;;;;;23.57;19.60;;;;;;;;;;5009548;28;20183;-77
2022/04/27 07:08:40;;;;;;;24.73;20.10;;;;;;;;;;5009382;28;20209;-77
2022/04/27 07:11:06;;;;;;;23.37;18.90;;;;;;;;;;5009839;28;20194;-77
2022/04/27 07:13:32;;;;;;;23.27;18.87;;;;;;;;;;5008389;28;20179;-77
2022/04/27 07:16:01;;;;;;;22.27;17.87;;;;;;;;;;5010052;28;20302;-77
2022/04/27 07:18:28;;;;;;;20.90;18.03;;;;;;;;;;5003558;28;20195;-77
2022/04/27 07:20:54;;;;;;;24.13;19.40;;;;;;;;;;5003192;28;20193;-77
2022/04/27 07:23:21;;;;;;;23.97;19.37;;;;;;;;;;5008665;28;20191;-77
2022/04/27 07:25:47;;;;;;;23.10;18.87;;;;;;;;;;5012487;28;20187;-80
2022/04/27 07:28:13;;;;;;;21.97;18.60;;;;;;;;;;5011003;28;20207;-80
2022/04/27 07:30:39;;;;;;;22.80;19.17;;;;;;;;;;5008451;28;20283;-78
2022/04/27 07:33:06;;;;;;;24.10;17.80;;;;;;;;;;5019303;28;20191;-79
2022/04/27 07:35:32;;;;;;;23.13;17.97;;;;;;;;;;4997544;28;20191;-75
2022/04/27 07:37:58;;;;;;;22.93;19.03;;;;;;;;;;5000291;28;20217;-75
2022/04/27 07:40:24;;;;;;;21.80;18.40;;;;;;;;;;5010452;28;20187;-76
2022/04/27 07:42:50;;;;;;;20.87;18.57;;;;;;;;;;5012402;28;20630;-76
2022/04/27 07:45:16;;;;;;;20.97;18.20;;;;;;;;;;5012469;28;20269;-76
2022/04/27 07:47:44;;;;;;;22.67;19.23;;;;;;;;;;5010495;28;20833;-76
2022/04/27 07:50:11;;;;;;;20.57;17.73;;;;;;;;;;5005058;28;20187;-76
2022/04/27 07:52:37;;;;;;;24.70;20.13;;;;;;;;;;5026663;28;20178;-76
2022/04/27 07:55:04;;;;;;;21.40;18.77;;;;;;;;;;5011952;28;20187;-76
2022/04/27 07:57:31;;;;;;;23.13;18.50;;;;;;;;;;5011325;28;20685;-76
2022/04/27 07:59:57;;;;;;;23.30;19.00;;;;;;;;;;5004316;28;20195;-78
2022/04/27 08:02:24;;;;;;;20.80;18.53;;;;;;;;;;4998162;28;20329;-77
2022/04/27 08:04:50;;;;;;;23.77;18.33;;;;;;;;;;5006963;28;20253;-78
2022/04/27 08:07:16;;;;;;;20.43;17.80;;;;;;;;;;5008062;28;20190;-78
2022/04/27 08:09:42;;;;;;;20.77;18.33;;;;;;;;;;5010491;28;20257;-77
2022/04/27 08:12:09;;;;;;;21.50;18.87;;;;;;;;;;5011921;28;20195;-78
2022/04/27 08:14:36;;;;;;;24.27;18.73;;;;;;;;;;5010526;28;20213;-78
2022/04/27 08:17:02;;;;;;;23.10;19.27;;;;;;;;;;5010419;28;20210;-76
2022/04/27 08:19:28;;;;;;;20.90;18.40;;;;;;;;;;4989886;28;20206;-75
2022/04/27 08:21:55;;;;;;;20.37;18.13;;;;;;;;;;5010671;28;20183;-77
2022/04/27 08:24:24;;;;;;;21.53;18.83;;;;;;;;;;5009611;28;20765;-77
2022/04/27 08:26:51;;;;;;;23.40;20.60;;;;;;;;;;5010123;28;20810;-76
2022/04/27 08:29:18;;;;;;;24.63;21.47;;;;;;;;;;5008203;28;20571;-77
2022/04/27 08:31:44;;;;;;;25.13;21.83;;;;;;;;;;5009887;28;20195;-77
2022/04/27 08:34:10;;;;;;;25.47;22.20;;;;;;;;;;5009369;28;20652;-76
2022/04/27 08:36:37;;;;;;;24.73;21.13;;;;;;;;;;5010618;28;20205;-76
2022/04/27 08:39:04;;;;;;;23.33;20.27;;;;;;;;;;5006215;28;20199;-76
2022/04/27 08:41:31;;;;;;;25.23;20.70;;;;;;;;;;5005832;28;20590;-77
2022/04/27 08:43:57;;;;;;;21.97;19.17;;;;;;;;;;5005614;28;20219;-77
2022/04/27 08:46:24;;;;;;;20.97;18.60;;;;;;;;;;5017610;28;20182;-77
2022/04/27 08:48:50;;;;;;;22.63;19.67;;;;;;;;;;5006446;28;20307;-77
2022/04/27 08:51:18;;;;;;;22.97;19.13;;;;;;;;;;5012212;28;20278;-77
2022/04/27 08:53:44;;;;;;;22.77;19.47;;;;;;;;;;5014551;28;20197;-77
2022/04/27 08:56:13;;;;;;;22.47;19.80;;;;;;;;;;5013859;28;20688;-77
2022/04/27 08:58:39;;;;;;;21.93;19.43;;;;;;;;;;5012886;28;20218;-77
2022/04/27 09:01:05;;;;;;;23.30;20.00;;;;;;;;;;5012226;28;20195;-77
2022/04/27 09:03:31;;;;;;;20.90;18.67;;;;;;;;;;5014399;28;20273;-77
2022/04/27 09:05:58;;;;;;;21.53;19.23;;;;;;;;;;5012297;28;20293;-77
2022/04/27 09:08:36;;;;;;;23.27;20.17;;;;;;;;;;5013805;28;20203;-77
2022/04/27 09:11:12;;;;;;;21.17;18.30;;;;;;;;;;5025578;28;20203;-77
2022/04/27 09:13:38;;;;;;;21.17;18.87;;;;;;;;;;5012787;28;20556;-79
2022/04/27 09:16:05;;;;;;;21.73;19.30;;;;;;;;;;5012906;28;20195;-79
2022/04/27 09:21:54;;;;;;;20.20;17.87;;;;;;;;;;5009037;28;20191;-76
2022/04/27 09:24:20;;;;;;;19.07;17.17;;;;;;;;;;5008959;28;20273;-75
2022/04/27 09:26:57;;;;;;;19.33;17.23;;;;;;;;;;5011054;28;20189;-77
2022/04/27 09:29:26;;;;;;;19.30;17.30;;;;;;;;;;5005914;28;20199;-77
2022/04/27 09:31:57;;;;;;;19.40;17.40;;;;;;;;;;5005932;28;20571;-77
2022/04/27 09:34:29;;;;;;;20.03;17.83;;;;;;;;;;5004493;28;20191;-76
2022/04/27 09:36:55;;;;;;;19.70;17.30;;;;;;;;;;5024519;28;20678;-76
2022/04/27 09:39:28;;;;;;;20.70;16.83;;;;;;;;;;5011423;28;20573;-77
2022/04/27 09:42:02;;;;;;;17.43;15.63;;;;;;;;;;5008154;28;20195;-78
2022/04/27 09:44:28;;;;;;;17.13;15.33;;;;;;;;;;5017826;28;20322;-78
2022/04/27 09:46:54;;;;;;;18.70;16.77;;;;;;;;;;5006592;28;20215;-78
2022/04/27 09:49:21;;;;;;;17.43;15.73;;;;;;;;;;5011245;28;20282;-78
2022/04/27 09:51:47;;;;;;;18.63;16.63;;;;;;;;;;5010164;28;20187;-79
2022/04/27 09:54:24;;;;;;;17.70;15.80;;;;;;;;;;5013288;28;20644;-79
2022/04/27 09:56:54;;;;;;;20.57;18.37;;;;;;;;;;5022400;28;20191;-79
2022/04/27 09:59:21;;;;;;;20.23;17.60;;;;;;;;;;5007718;28;20290;-78
2022/04/27 10:01:49;;;;;;;17.70;15.90;;;;;;;;;;5006860;28;20571;-79
2022/04/27 10:04:19;;;;;;;17.83;15.83;;;;;;;;;;5010340;28;20294;-78
2022/04/27 10:06:45;;;;;;;17.63;15.87;;;;;;;;;;5007999;28;20191;-80
2022/04/27 10:09:11;;;;;;;17.37;15.57;;;;;;;;;;5011883;28;20273;-79
2022/04/27 10:11:37;;;;;;;15.93;14.23;;;;;;;;;;5014043;28;20245;-79
2022/04/27 10:14:05;;;;;;;17.37;15.50;;;;;;;;;;4983459;28;20199;-80
2022/04/27 10:16:31;;;;;;;16.80;15.00;;;;;;;;;;5002050;28;20187;-80
2022/04/27 10:18:57;;;;;;;18.67;16.77;;;;;;;;;;5000318;28;20211;-80
2022/04/27 10:21:59;;;;;;;18.17;16.00;;;;;;;;;;4996271;28;20217;-79
2022/04/27 10:24:34;;;;;;;18.27;16.20;;;;;;;;;;5013720;28;20268;-79
2022/04/27 10:27:22;;;;;;;17.47;15.67;;;;;;;;;;5010480;28;20266;-84
2022/04/27 10:29:48;;;;;;;15.27;13.67;;;;;;;;;;4995297;28;20215;-83
2022/04/27 10:32:33;;;;;;;17.07;15.10;;;;;;;;;;5012190;28;20274;-80
2022/04/27 10:35:18;;;;;;;17.27;15.37;;;;;;;;;;5026679;28;20186;-84
2022/04/27 10:37:57;;;;;;;15.50;14.00;;;;;;;;;;5010664;28;20234;-79
2022/04/27 10:40:26;;;;;;;17.03;14.33;;;;;;;;;;5012900;28;20274;-78
2022/04/27 10:42:52;;;;;;;14.97;13.47;;;;;;;;;;5014871;28;20286;-82
2022/04/27 10:45:25;;;;;;;16.43;14.73;;;;;;;;;;4976889;28;20212;-81
2022/04/27 10:47:51;;;;;;;13.97;12.50;;;;;;;;;;5010480;28;20215;-78
2022/04/27 10:50:18;;;;;;;14.87;13.37;;;;;;;;;;5006195;28;20172;-81
2022/04/27 10:52:50;;;;;;;15.03;13.53;;;;;;;;;;5013135;28;20194;-79
2022/04/27 10:55:35;;;;;;;14.93;13.43;;;;;;;;;;5022641;28;20179;-82
2022/04/27 10:58:31;;;;;;;13.77;12.30;;;;;;;;;;5013935;28;20227;-81
2022/04/27 11:01:01;;;;;;;15.67;14.07;;;;;;;;;;5001287;28;20191;-78
2022/04/27 11:03:38;;;;;;;17.57;15.77;;;;;;;;;;5008565;28;20183;-78
2022/04/27 11:06:12;;;;;;;18.53;15.77;;;;;;;;;;5009991;28;20190;-80
2022/04/27 11:09:03;;;;;;;15.60;14.00;;;;;;;;;;4996330;28;21760;-78
2022/04/27 11:11:31;;;;;;;13.97;12.50;;;;;;;;;;5014849;28;20195;-79
2022/04/27 11:14:01;;;;;;;13.80;12.33;;;;;;;;;;5013713;28;20194;-79
2022/04/27 11:16:27;;;;;;;13.73;12.33;;;;;;;;;;5030022;28;20183;-79
2022/04/27 11:18:55;;;;;;;16.23;14.67;;;;;;;;;;5014526;28;20625;-78
2022/04/27 11:21:22;;;;;;;16.17;14.47;;;;;;;;;;5013654;28;20564;-79
2022/04/27 11:23:49;;;;;;;12.90;11.63;;;;;;;;;;5014765;28;20187;-79
2022/04/27 11:26:15;;;;;;;12.93;11.63;;;;;;;;;;5012278;28;20179;-78
2022/04/27 11:28:45;;;;;;;13.30;11.90;;;;;;;;;;5010380;28;20278;-79
2022/04/27 11:31:12;;;;;;;14.20;12.17;;;;;;;;;;5010742;28;20310;-82
2022/04/27 11:33:40;;;;;;;12.37;11.17;;;;;;;;;;5014450;28;20207;-79
2022/04/27 11:36:25;;;;;;;13.00;11.70;;;;;;;;;;5009892;28;20191;-79
2022/04/27 11:38:52;;;;;;;13.00;10.97;;;;;;;;;;5008184;28;20199;-78
2022/04/27 11:41:39;;;;;;;10.87;9.87;;;;;;;;;;5006017;28;20187;-78
2022/04/27 11:44:05;;;;;;;11.43;10.33;;;;;;;;;;4978831;28;20222;-81
2022/04/27 11:46:37;;;;;;;11.03;10.03;;;;;;;;;;5003446;28;20195;-78
2022/04/27 11:49:11;;;;;;;10.57;9.57;;;;;;;;;;5026147;28;20221;-78
2022/04/27 11:51:37;;;;;;;12.30;9.83;;;;;;;;;;4996577;28;20654;-78
2022/04/27 11:54:03;;;;;;;11.47;9.97;;;;;;;;;;5008593;28;20265;-79
2022/04/27 11:56:36;;;;;;;10.53;9.53;;;;;;;;;;5012203;28;20191;-84
2022/04/27 11:59:09;;;;;;;9.50;8.60;;;;;;;;;;5013708;28;20211;-80
2022/04/27 12:01:35;;;;;;;9.60;8.70;;;;;;;;;;5013792;28;20667;-80
2022/04/27 12:04:02;;;;;;;10.47;9.40;;;;;;;;;;5008620;28;20207;-79
2022/04/27 12:06:29;;;;;;;9.33;8.43;;;;;;;;;;4994819;28;20183;-79
2022/04/27 12:09:02;;;;;;;10.30;8.83;;;;;;;;;;4988621;28;20207;-76
2022/04/27 12:11:28;;;;;;;9.23;8.23;;;;;;;;;;5009286;28;20187;-77
2022/04/27 12:13:55;;;;;;;9.60;8.60;;;;;;;;;;5010571;28;20710;-77
2022/04/27 12:16:21;;;;;;;8.73;7.83;;;;;;;;;;4999269;28;20640;-76
2022/04/27 12:18:51;;;;;;;9.60;8.63;;;;;;;;;;4999768;28;20336;-76
2022/04/27 12:21:24;;;;;;;9.97;9.00;;;;;;;;;;5006137;28;20262;-76
2022/04/27 12:24:19;;;;;;;10.97;8.83;;;;;;;;;;5007596;28;20242;-76
2022/04/27 12:26:46;;;;;;;8.73;8.00;;;;;;;;;;5009996;28;20195;-76
2022/04/27 12:29:12;;;;;;;9.03;8.17;;;;;;;;;;5012960;28;20201;-76
2022/04/27 12:31:38;;;;;;;8.57;7.77;;;;;;;;;;5014061;28;20598;-77
2022/04/27 12:37:29;;;;;;;7.97;7.33;;;;;;;;;;5014361;28;20331;-76
2022/04/27 12:39:39;;;;;;;11.70;9.57;;;;;;;;;;5015841;28;20190;-77
2022/04/27 12:42:08;;;;;;;9.17;8.17;;;;;;;;;;5021280;28;20195;-77
2022/04/27 12:44:41;;;;;;;8.67;7.87;;;;;;;;;;5010758;28;20251;-76
2022/04/27 12:47:09;;;;;;;8.50;7.70;;;;;;;;;;5011001;28;20220;-77
2022/04/27 12:49:42;;;;;;;7.77;7.07;;;;;;;;;;5016352;28;20187;-79
2022/04/27 12:52:16;;;;;;;8.30;7.60;;;;;;;;;;5018020;28;20183;-78
2022/04/27 12:54:42;;;;;;;7.17;6.47;;;;;;;;;;5017210;28;20186;-78
2022/04/27 12:57:08;;;;;;;7.20;6.50;;;;;;;;;;5015577;28;20655;-77
2022/04/27 12:59:53;;;;;;;9.10;7.20;;;;;;;;;;5015135;28;20176;-77
2022/04/27 13:02:19;;;;;;;8.10;7.40;;;;;;;;;;5014899;28;20191;-77
2022/04/27 13:04:47;;;;;;;8.67;7.10;;;;;;;;;;4997419;28;20203;-76
2022/04/27 13:07:13;;;;;;;7.43;6.73;;;;;;;;;;5013727;28;20203;-79
2022/04/27 13:12:35;;;;;;;8.63;7.83;;;;;;;;;;5012729;28;20195;-78
2022/04/27 13:15:02;;;;;;;10.40;9.50;;;;;;;;;;5023416;28;20184;-78
2022/04/27 13:17:29;;;;;;;9.30;8.30;;;;;;;;;;5024230;28;20195;-78
2022/04/27 13:19:55;;;;;;;9.60;8.70;;;;;;;;;;5032669;28;20190;-78
2022/04/27 13:22:23;;;;;;;8.30;7.53;;;;;;;;;;5039086;28;20232;-78
2022/04/27 13:24:50;;;;;;;7.83;7.03;;;;;;;;;;5043146;28;20210;-78
2022/04/27 13:27:17;;;;;;;7.90;7.10;;;;;;;;;;5035989;28;20175;-78
2022/04/27 13:29:43;;;;;;;6.90;6.30;;;;;;;;;;5036728;28;20265;-78
2022/04/27 13:32:09;;;;;;;5.60;5.10;;;;;;;;;;5036061;28;20182;-78
2022/04/27 13:34:36;;;;;;;6.30;5.70;;;;;;;;;;5036251;28;20738;-78
2022/04/27 13:37:04;;;;;;;5.77;5.27;;;;;;;;;;5027966;28;20623;-78
2022/04/27 13:39:31;;;;;;;5.70;5.17;;;;;;;;;;4999436;28;20195;-78
2022/04/27 13:41:57;;;;;;;6.00;5.50;;;;;;;;;;5014756;28;20270;-76
2022/04/27 13:44:24;;;;;;;6.63;5.97;;;;;;;;;;5015387;28;20204;-78
2022/04/27 13:46:50;;;;;;;5.83;5.23;;;;;;;;;;5014412;28;20662;-78
2022/04/27 13:49:19;;;;;;;5.53;5.03;;;;;;;;;;5015288;28;20278;-78
2022/04/27 13:51:46;;;;;;;5.83;5.33;;;;;;;;;;5015879;28;20191;-78
2022/04/27 13:54:14;;;;;;;5.63;5.10;;;;;;;;;;5016107;28;20185;-78
2022/04/27 13:56:40;;;;;;;5.60;5.10;;;;;;;;;;5016036;28;20221;-78
2022/04/27 13:59:06;;;;;;;4.83;4.43;;;;;;;;;;4983545;28;20217;-78
2022/04/27 14:01:33;;;;;;;4.90;4.50;;;;;;;;;;5014644;28;20648;-78
2022/04/27 14:03:59;;;;;;;5.63;5.00;;;;;;;;;;5015266;28;20291;-78
2022/04/27 14:06:25;;;;;;;5.40;4.97;;;;;;;;;;5006805;28;20189;-78
2022/04/27 14:08:51;;;;;;;5.47;4.97;;;;;;;;;;5014306;28;20241;-78
2022/04/27 14:14:03;;;;;;;5.67;5.07;;;;;;;;;;5012723;28;20578;-79
2022/04/27 14:19:14;;;;;;;5.37;4.87;;;;;;;;;;5017166;28;20191;-82
2022/04/27 14:21:40;;;;;;;8.27;4.77;;;;;;;;;;4998739;28;20190;-77
2022/04/27 14:24:09;;;;;;;6.23;4.60;;;;;;;;;;5016345;28;20702;-79
2022/04/27 14:26:39;;;;;;;5.53;4.93;;;;;;;;;;5018191;28;20717;-78
2022/04/27 14:29:06;;;;;;;5.50;5.00;;;;;;;;;;5029870;28;20211;-76
2022/04/27 14:31:32;;;;;;;4.93;4.03;;;;;;;;;;5012918;28;20208;-78
2022/04/27 14:33:59;;;;;;;5.60;4.23;;;;;;;;;;5015204;28;20187;-81
2022/04/27 14:36:25;;;;;;;6.70;4.60;;;;;;;;;;5006321;28;20206;-80
2022/04/27 14:38:53;;;;;;;5.33;4.70;;;;;;;;;;5004913;28;20215;-82
2022/04/27 14:41:20;;;;;;;4.70;4.30;;;;;;;;;;5015528;28;20225;-81
2022/04/27 14:43:46;;;;;;;4.73;4.23;;;;;;;;;;5003060;28;20797;-79
2022/04/27 14:46:14;;;;;;;4.77;4.37;;;;;;;;;;5016272;28;20176;-83
2022/04/27 14:48:42;;;;;;;4.03;3.30;;;;;;;;;;4997804;28;20207;-79
2022/04/27 14:51:09;;;;;;;3.33;3.03;;;;;;;;;;4999509;28;20179;-83
2022/04/27 14:53:36;;;;;;;3.53;3.23;;;;;;;;;;5016450;28;20183;-80
2022/04/27 14:56:03;;;;;;;3.70;3.33;;;;;;;;;;5012528;28;20632;-78
2022/04/27 14:58:29;;;;;;;4.90;3.77;;;;;;;;;;4997776;28;20651;-79
2022/04/27 15:00:57;;;;;;;4.50;4.10;;;;;;;;;;5014867;28;20199;-78
2022/04/27 15:03:24;;;;;;;5.07;4.03;;;;;;;;;;5016761;28;20214;-77
2022/04/27 15:05:50;;;;;;;5.33;3.80;;;;;;;;;;5022333;28;20232;-79
2022/04/27 15:08:16;;;;;;;4.20;3.80;;;;;;;;;;5026732;28;20241;-77